Time;durP1;ratioP1;P1;durP2;ratioP2;P2;SDS_P1;SDS_P2;PMS_P1;PMS_P2;Temp;Humidity;BMP_temperature;BMP_pressure;BME280_temperature;BME280_humidity;BME280_pressure;Samples;Min_cycle;Max_cycle;Signal;HPM_P1;HPM_P2
2024/01/10 00:01:41;;;;;;;14.88;6.20;;;;;;;;;;4961999;28;20023;-68
2024/01/10 00:04:06;;;;;;;19.00;6.68;;;;;;;;;;4961535;28;20034;-68
2024/01/10 00:06:31;;;;;;;15.27;6.60;;;;;;;;;;4969232;28;20035;-69
2024/01/10 00:08:57;;;;;;;18.10;7.10;;;;;;;;;;4973317;28;20050;-70
2024/01/10 00:11:22;;;;;;;20.15;6.75;;;;;;;;;;4974129;28;20486;-69
2024/01/10 00:13:47;;;;;;;14.00;6.47;;;;;;;;;;4968223;28;20030;-68
2024/01/10 00:16:15;;;;;;;14.15;5.85;;;;;;;;;;4970514;28;20023;-69
2024/01/10 00:18:40;;;;;;;15.77;5.47;;;;;;;;;;4974239;28;20023;-68
2024/01/10 00:21:10;;;;;;;15.98;5.70;;;;;;;;;;4964688;28;20039;-68
2024/01/10 00:23:35;;;;;;;15.35;6.22;;;;;;;;;;4962637;28;20027;-69
2024/01/10 00:26:00;;;;;;;14.85;5.85;;;;;;;;;;4966275;28;20034;-68
2024/01/10 00:28:26;;;;;;;16.17;5.72;;;;;;;;;;4969141;28;20027;-68
2024/01/10 00:30:51;;;;;;;14.55;6.20;;;;;;;;;;4969777;28;20398;-69
2024/01/10 00:33:16;;;;;;;19.38;7.30;;;;;;;;;;4970505;28;20115;-68
2024/01/10 00:35:41;;;;;;;17.23;5.78;;;;;;;;;;4965345;28;20023;-69
2024/01/10 00:38:07;;;;;;;20.50;5.85;;;;;;;;;;4961093;28;20026;-68
2024/01/10 00:40:32;;;;;;;14.38;6.00;;;;;;;;;;4971932;28;20080;-68
2024/01/10 00:42:57;;;;;;;13.00;5.65;;;;;;;;;;4966864;28;20057;-68
2024/01/10 00:45:22;;;;;;;16.65;5.95;;;;;;;;;;4967593;28;20191;-68
2024/01/10 00:47:48;;;;;;;18.17;5.25;;;;;;;;;;4968238;28;20026;-69
2024/01/10 00:50:13;;;;;;;14.82;5.50;;;;;;;;;;4969663;28;20492;-68
2024/01/10 00:52:38;;;;;;;12.00;4.78;;;;;;;;;;4972192;28;20354;-68
2024/01/10 00:55:04;;;;;;;13.55;5.38;;;;;;;;;;4968897;28;20481;-69
2024/01/10 00:57:29;;;;;;;3.38;2.08;;;;;;;;;;4968676;28;20106;-68
2024/01/10 00:59:54;;;;;;;11.88;5.53;;;;;;;;;;4965603;28;20038;-69
2024/01/10 01:02:19;;;;;;;14.80;5.22;;;;;;;;;;4964286;28;20026;-68
2024/01/10 01:04:45;;;;;;;15.57;5.53;;;;;;;;;;4973791;28;20018;-68
2024/01/10 01:07:10;;;;;;;16.30;5.18;;;;;;;;;;4968544;28;20027;-69
2024/01/10 01:09:35;;;;;;;15.43;5.93;;;;;;;;;;4968896;28;20459;-68
2024/01/10 01:12:01;;;;;;;12.93;5.75;;;;;;;;;;4968851;28;20483;-69
2024/01/10 01:14:27;;;;;;;16.77;5.93;;;;;;;;;;4968842;28;20117;-68
2024/01/10 01:16:52;;;;;;;14.52;4.93;;;;;;;;;;4968741;28;20027;-69
2024/01/10 01:19:17;;;;;;;16.10;5.70;;;;;;;;;;4962804;28;20424;-68
2024/01/10 01:21:42;;;;;;;23.23;5.35;;;;;;;;;;4968589;28;20019;-69
2024/01/10 01:24:07;;;;;;;14.25;5.57;;;;;;;;;;4960345;28;20102;-68
2024/01/10 01:26:33;;;;;;;12.20;4.75;;;;;;;;;;4962308;28;20106;-68
2024/01/10 01:28:58;;;;;;;19.02;5.88;;;;;;;;;;4967575;28;20619;-68
2024/01/10 01:31:23;;;;;;;16.15;5.60;;;;;;;;;;4960097;28;20022;-68
2024/01/10 01:33:48;;;;;;;18.80;5.80;;;;;;;;;;4977763;28;20042;-68
2024/01/10 01:36:13;;;;;;;16.50;5.45;;;;;;;;;;4962899;28;20446;-68
2024/01/10 01:38:38;;;;;;;17.58;5.70;;;;;;;;;;4963540;28;20019;-69
2024/01/10 01:41:05;;;;;;;12.38;5.55;;;;;;;;;;4966058;28;20037;-68
2024/01/10 01:43:31;;;;;;;12.50;5.38;;;;;;;;;;4964958;28;20023;-69
2024/01/10 01:45:56;;;;;;;14.27;5.30;;;;;;;;;;4972173;28;20109;-69
2024/01/10 01:48:22;;;;;;;16.88;5.70;;;;;;;;;;4964121;28;20026;-69
2024/01/10 01:50:49;;;;;;;15.80;5.95;;;;;;;;;;4970882;28;20426;-68
2024/01/10 01:53:15;;;;;;;16.25;5.68;;;;;;;;;;4950924;28;20027;-69
2024/01/10 01:55:41;;;;;;;10.25;4.43;;;;;;;;;;4965896;28;20144;-69
2024/01/10 01:58:07;;;;;;;14.18;5.50;;;;;;;;;;4953479;28;20528;-69
2024/01/10 02:00:32;;;;;;;12.88;4.65;;;;;;;;;;4961944;28;20102;-69
2024/01/10 02:02:58;;;;;;;13.35;5.85;;;;;;;;;;4969915;28;20157;-69
2024/01/10 02:05:24;;;;;;;10.77;4.63;;;;;;;;;;4963614;28;20038;-69
2024/01/10 02:07:50;;;;;;;17.73;4.50;;;;;;;;;;4967029;28;20031;-69
2024/01/10 02:10:15;;;;;;;15.82;5.47;;;;;;;;;;4964031;28;20035;-68
2024/01/10 02:12:40;;;;;;;17.33;5.72;;;;;;;;;;4969783;28;20530;-67
2024/01/10 02:15:06;;;;;;;13.80;5.20;;;;;;;;;;4966541;28;20085;-67
2024/01/10 02:17:31;;;;;;;14.73;5.93;;;;;;;;;;4967523;28;20434;-67
2024/01/10 02:20:07;;;;;;;15.23;5.47;;;;;;;;;;4959757;28;20023;-68
2024/01/10 02:22:32;;;;;;;11.93;5.20;;;;;;;;;;4961475;28;20454;-68
2024/01/10 02:24:58;;;;;;;11.10;4.28;;;;;;;;;;4965895;28;20112;-67
2024/01/10 02:27:23;;;;;;;12.02;5.13;;;;;;;;;;4969590;28;20045;-67
2024/01/10 02:29:49;;;;;;;13.00;4.60;;;;;;;;;;4965203;28;20037;-68
2024/01/10 02:32:14;;;;;;;15.98;5.18;;;;;;;;;;4960394;28;20539;-67
2024/01/10 02:34:39;;;;;;;13.80;5.93;;;;;;;;;;4963134;28;20023;-67
2024/01/10 02:37:04;;;;;;;16.05;5.07;;;;;;;;;;4968323;28;20054;-67
2024/01/10 02:39:30;;;;;;;13.43;5.97;;;;;;;;;;4965862;28;20117;-67
2024/01/10 02:41:55;;;;;;;15.07;4.38;;;;;;;;;;4974147;28;20037;-67
2024/01/10 02:44:21;;;;;;;14.68;4.57;;;;;;;;;;4970396;28;20015;-67
2024/01/10 02:46:47;;;;;;;17.48;5.93;;;;;;;;;;4964512;28;20500;-67
2024/01/10 02:49:12;;;;;;;16.58;6.05;;;;;;;;;;4969130;28;20105;-67
2024/01/10 02:51:37;;;;;;;15.15;5.30;;;;;;;;;;4965726;28;20031;-67
2024/01/10 02:54:02;;;;;;;8.20;4.03;;;;;;;;;;4968200;28;20152;-67
2024/01/10 02:56:27;;;;;;;12.00;4.95;;;;;;;;;;4965764;28;20023;-67
2024/01/10 02:58:53;;;;;;;11.23;4.80;;;;;;;;;;4967016;28;20042;-67
2024/01/10 03:01:18;;;;;;;13.32;6.13;;;;;;;;;;4961528;28;20105;-67
2024/01/10 03:03:43;;;;;;;17.13;5.80;;;;;;;;;;4963253;28;20019;-67
2024/01/10 03:06:08;;;;;;;13.27;5.13;;;;;;;;;;4963222;28;20054;-67
2024/01/10 03:08:34;;;;;;;18.25;4.75;;;;;;;;;;4961994;28;20483;-67
2024/01/10 03:10:59;;;;;;;13.10;5.00;;;;;;;;;;4973030;28;20546;-67
2024/01/10 03:13:24;;;;;;;20.90;7.25;;;;;;;;;;4967455;28;20426;-67
2024/01/10 03:15:49;;;;;;;11.27;4.70;;;;;;;;;;4964739;28;20023;-67
2024/01/10 03:18:14;;;;;;;13.98;5.30;;;;;;;;;;4967601;28;20035;-67
2024/01/10 03:20:40;;;;;;;13.45;6.05;;;;;;;;;;4967095;28;20473;-67
2024/01/10 03:23:05;;;;;;;19.15;6.72;;;;;;;;;;4972927;28;20029;-67
2024/01/10 03:25:30;;;;;;;12.63;5.10;;;;;;;;;;4968701;28;20113;-68
2024/01/10 03:27:55;;;;;;;10.75;5.07;;;;;;;;;;4968167;28;20035;-67
2024/01/10 03:30:24;;;;;;;10.23;4.07;;;;;;;;;;4965697;28;20027;-67
2024/01/10 03:32:49;;;;;;;12.07;5.55;;;;;;;;;;4967383;28;20034;-67
2024/01/10 03:35:14;;;;;;;10.45;5.05;;;;;;;;;;4972581;28;20027;-67
2024/01/10 03:37:39;;;;;;;12.18;4.75;;;;;;;;;;4967729;28;20039;-67
2024/01/10 03:40:05;;;;;;;10.52;4.65;;;;;;;;;;4972311;28;20035;-67
2024/01/10 03:42:30;;;;;;;14.57;4.97;;;;;;;;;;4970036;28;20042;-67
2024/01/10 03:44:55;;;;;;;12.02;5.70;;;;;;;;;;4979014;28;20496;-67
2024/01/10 03:47:21;;;;;;;13.55;5.20;;;;;;;;;;4970690;28;20064;-67
2024/01/10 03:49:46;;;;;;;10.57;4.53;;;;;;;;;;4970236;28;20205;-67
2024/01/10 03:52:11;;;;;;;15.32;4.65;;;;;;;;;;4966813;28;20102;-67
2024/01/10 03:54:36;;;;;;;11.18;5.00;;;;;;;;;;4973785;28;20129;-67
2024/01/10 03:57:02;;;;;;;10.88;4.50;;;;;;;;;;4964687;28;20015;-67
2024/01/10 03:59:27;;;;;;;14.90;5.18;;;;;;;;;;4969393;28;20385;-67
2024/01/10 04:01:52;;;;;;;11.18;4.43;;;;;;;;;;4965678;28;20050;-67
2024/01/10 04:04:17;;;;;;;16.90;6.43;;;;;;;;;;4970297;28;20068;-67
2024/01/10 04:06:42;;;;;;;11.57;4.55;;;;;;;;;;4964399;28;20027;-67
2024/01/10 04:09:09;;;;;;;15.45;5.50;;;;;;;;;;4959389;28;20466;-67
2024/01/10 04:11:34;;;;;;;11.15;5.35;;;;;;;;;;4965398;28;20027;-67
2024/01/10 04:14:00;;;;;;;18.15;5.25;;;;;;;;;;4974072;28;20027;-67
2024/01/10 04:16:25;;;;;;;14.30;5.40;;;;;;;;;;4965989;28;20030;-67
2024/01/10 04:18:51;;;;;;;14.18;5.47;;;;;;;;;;4975305;28;20026;-67
2024/01/10 04:21:16;;;;;;;13.07;5.13;;;;;;;;;;4966476;28;20072;-67
2024/01/10 04:23:41;;;;;;;13.07;4.53;;;;;;;;;;4970339;28;20225;-67
2024/01/10 04:26:06;;;;;;;12.88;5.43;;;;;;;;;;4963229;28;20023;-67
2024/01/10 04:28:31;;;;;;;14.65;5.47;;;;;;;;;;4971020;28;20098;-67
2024/01/10 04:30:57;;;;;;;11.10;4.45;;;;;;;;;;4963581;28;20382;-67
2024/01/10 04:33:22;;;;;;;16.80;5.82;;;;;;;;;;4972882;28;20386;-67
2024/01/10 04:35:47;;;;;;;15.43;5.20;;;;;;;;;;4968251;28;20022;-67
2024/01/10 04:38:12;;;;;;;14.38;5.75;;;;;;;;;;4961927;28;20102;-69
2024/01/10 04:40:37;;;;;;;21.17;5.45;;;;;;;;;;4966574;28;20034;-67
2024/01/10 04:43:03;;;;;;;15.77;4.93;;;;;;;;;;4961428;28;20039;-67
2024/01/10 04:45:28;;;;;;;18.00;4.65;;;;;;;;;;4971803;28;20023;-67
2024/01/10 04:47:53;;;;;;;15.65;5.00;;;;;;;;;;4972567;28;20487;-67
2024/01/10 04:50:18;;;;;;;13.60;5.45;;;;;;;;;;4966043;28;20084;-67
2024/01/10 04:52:43;;;;;;;19.80;6.18;;;;;;;;;;4966616;28;20118;-67
2024/01/10 04:55:10;;;;;;;11.63;5.32;;;;;;;;;;4969560;28;20026;-67
2024/01/10 04:57:35;;;;;;;15.98;5.68;;;;;;;;;;4969149;28;20037;-67
2024/01/10 05:00:01;;;;;;;14.02;6.35;;;;;;;;;;4964962;28;20571;-67
2024/01/10 05:02:26;;;;;;;16.92;6.47;;;;;;;;;;4965560;28;20023;-67
2024/01/10 05:04:52;;;;;;;12.80;5.03;;;;;;;;;;4968444;28;20039;-67
2024/01/10 05:07:17;;;;;;;15.10;5.88;;;;;;;;;;4963816;28;20019;-67
2024/01/10 05:09:42;;;;;;;12.30;5.68;;;;;;;;;;4967210;28;20054;-67
2024/01/10 05:12:07;;;;;;;17.92;5.53;;;;;;;;;;4964534;28;20030;-67
2024/01/10 05:14:33;;;;;;;14.88;5.60;;;;;;;;;;4957010;28;20113;-67
2024/01/10 05:16:58;;;;;;;14.13;5.60;;;;;;;;;;4967591;28;20095;-67
2024/01/10 05:19:23;;;;;;;15.30;5.22;;;;;;;;;;4971023;28;20085;-67
2024/01/10 05:21:48;;;;;;;13.13;4.65;;;;;;;;;;4963041;28;20046;-67
2024/01/10 05:24:14;;;;;;;17.08;5.25;;;;;;;;;;4967173;28;20038;-67
2024/01/10 05:26:39;;;;;;;14.82;4.53;;;;;;;;;;4972520;28;20019;-67
2024/01/10 05:29:04;;;;;;;12.15;5.22;;;;;;;;;;4968130;28;20028;-67
2024/01/10 05:31:29;;;;;;;12.18;5.00;;;;;;;;;;4965375;28;20049;-67
2024/01/10 05:33:55;;;;;;;13.63;5.63;;;;;;;;;;4963483;28;20058;-67
2024/01/10 05:36:23;;;;;;;17.95;5.80;;;;;;;;;;4966758;28;20027;-67
2024/01/10 05:38:49;;;;;;;14.13;6.05;;;;;;;;;;4962253;28;20077;-67
2024/01/10 05:41:14;;;;;;;22.17;5.45;;;;;;;;;;4967721;28;20505;-67
2024/01/10 05:43:39;;;;;;;15.65;5.85;;;;;;;;;;4960259;28;20035;-67
2024/01/10 05:46:04;;;;;;;12.30;4.80;;;;;;;;;;4964333;28;20018;-67
2024/01/10 05:48:30;;;;;;;15.73;5.75;;;;;;;;;;4963499;28;20172;-68
2024/01/10 05:50:55;;;;;;;11.65;5.15;;;;;;;;;;4961353;28;20034;-67
2024/01/10 05:53:20;;;;;;;12.65;4.68;;;;;;;;;;4969931;28;20500;-67
2024/01/10 05:55:45;;;;;;;11.38;4.93;;;;;;;;;;4968770;28;20057;-67
2024/01/10 05:58:11;;;;;;;16.33;5.43;;;;;;;;;;4959005;28;20023;-67
2024/01/10 06:00:36;;;;;;;12.98;5.28;;;;;;;;;;4977039;28;20022;-67
2024/01/10 06:03:01;;;;;;;16.10;5.28;;;;;;;;;;4964055;28;20192;-67
2024/01/10 06:05:27;;;;;;;12.93;5.22;;;;;;;;;;4971686;28;20560;-67
2024/01/10 06:07:52;;;;;;;18.05;5.47;;;;;;;;;;4970866;28;20015;-67
2024/01/10 06:10:17;;;;;;;13.65;4.90;;;;;;;;;;4970398;28;20530;-67
2024/01/10 06:12:42;;;;;;;12.88;4.95;;;;;;;;;;4972364;28;20066;-67
2024/01/10 06:15:08;;;;;;;17.92;5.53;;;;;;;;;;4973230;28;20098;-67
2024/01/10 06:17:33;;;;;;;12.90;5.68;;;;;;;;;;4970735;28;20021;-67
2024/01/10 06:19:59;;;;;;;13.18;5.07;;;;;;;;;;4974779;28;20234;-67
2024/01/10 06:22:26;;;;;;;13.88;5.82;;;;;;;;;;4965920;28;20080;-67
2024/01/10 06:24:51;;;;;;;15.75;5.07;;;;;;;;;;4969102;28;20031;-67
2024/01/10 06:27:18;;;;;;;13.23;5.07;;;;;;;;;;4967791;28;20500;-67
2024/01/10 06:29:43;;;;;;;14.98;4.57;;;;;;;;;;4964246;28;20056;-68
2024/01/10 06:32:08;;;;;;;19.13;5.97;;;;;;;;;;4967234;28;20409;-67
2024/01/10 06:34:34;;;;;;;17.10;5.50;;;;;;;;;;4973354;28;20079;-67
2024/01/10 06:36:59;;;;;;;12.10;5.22;;;;;;;;;;4969596;28;20994;-67
2024/01/10 06:39:24;;;;;;;15.23;6.35;;;;;;;;;;4975472;28;20030;-67
2024/01/10 06:41:49;;;;;;;23.35;6.15;;;;;;;;;;4962390;28;20122;-67
2024/01/10 06:44:17;;;;;;;17.25;6.15;;;;;;;;;;4971412;28;20092;-67
2024/01/10 06:46:42;;;;;;;17.52;7.03;;;;;;;;;;4956508;28;20114;-67
2024/01/10 06:49:07;;;;;;;26.58;6.70;;;;;;;;;;4968744;28;20093;-67
2024/01/10 06:51:33;;;;;;;16.30;5.93;;;;;;;;;;4969592;28;20122;-67
2024/01/10 06:54:02;;;;;;;22.42;7.32;;;;;;;;;;4972749;28;20733;-67
2024/01/10 06:56:27;;;;;;;11.20;5.20;;;;;;;;;;4965953;28;20030;-67
2024/01/10 06:58:54;;;;;;;18.35;5.90;;;;;;;;;;4966479;28;20031;-67
2024/01/10 07:01:21;;;;;;;14.50;5.07;;;;;;;;;;4964557;28;20121;-67
2024/01/10 07:03:46;;;;;;;16.17;6.85;;;;;;;;;;4968183;28;20027;-68
2024/01/10 07:06:14;;;;;;;17.85;5.95;;;;;;;;;;4966022;28;20022;-68
2024/01/10 07:08:39;;;;;;;18.42;6.25;;;;;;;;;;4963761;28;20026;-69
2024/01/10 07:11:05;;;;;;;15.05;6.03;;;;;;;;;;4980075;28;20098;-68
2024/01/10 07:13:31;;;;;;;17.65;6.07;;;;;;;;;;4983643;28;20436;-68
2024/01/10 07:15:56;;;;;;;20.17;5.15;;;;;;;;;;4972827;28;20034;-68
2024/01/10 07:18:21;;;;;;;19.40;5.90;;;;;;;;;;4971636;28;20498;-68
2024/01/10 07:20:47;;;;;;;17.55;6.13;;;;;;;;;;4966527;28;20470;-68
2024/01/10 07:23:12;;;;;;;19.08;6.30;;;;;;;;;;4964283;28;20083;-68
2024/01/10 07:25:37;;;;;;;15.90;5.75;;;;;;;;;;4974841;28;20014;-68
2024/01/10 07:28:02;;;;;;;23.15;7.63;;;;;;;;;;4963406;28;20512;-68
2024/01/10 07:30:28;;;;;;;20.63;8.23;;;;;;;;;;4964861;28;20023;-68
2024/01/10 07:32:53;;;;;;;30.45;6.63;;;;;;;;;;4970927;28;20101;-68
2024/01/10 07:35:18;;;;;;;23.17;7.95;;;;;;;;;;4968633;28;20491;-68
2024/01/10 07:37:44;;;;;;;21.70;6.93;;;;;;;;;;4965310;28;20034;-68
2024/01/10 07:40:10;;;;;;;23.60;7.43;;;;;;;;;;4967926;28;20142;-68
2024/01/10 07:42:36;;;;;;;25.75;6.97;;;;;;;;;;4965013;28;20033;-68
2024/01/10 07:45:04;;;;;;;21.52;5.75;;;;;;;;;;4964842;28;20035;-68
2024/01/10 07:47:39;;;;;;;21.70;5.72;;;;;;;;;;4965553;28;20026;-68
2024/01/10 07:50:05;;;;;;;23.58;7.63;;;;;;;;;;4966514;28;20027;-68
2024/01/10 07:52:31;;;;;;;10.38;4.68;;;;;;;;;;4967310;28;20038;-68
2024/01/10 07:54:57;;;;;;;16.30;5.30;;;;;;;;;;4964046;28;20030;-68
2024/01/10 07:57:22;;;;;;;19.75;5.80;;;;;;;;;;4960030;28;20026;-68
2024/01/10 07:59:47;;;;;;;12.13;4.60;;;;;;;;;;4965084;28;20034;-68
2024/01/10 08:02:12;;;;;;;13.70;5.10;;;;;;;;;;4976631;28;20421;-68
2024/01/10 08:04:37;;;;;;;10.43;5.38;;;;;;;;;;4975794;28;20037;-69
2024/01/10 08:07:03;;;;;;;16.05;5.47;;;;;;;;;;4965327;28;20126;-69
2024/01/10 08:09:28;;;;;;;14.40;5.47;;;;;;;;;;4957453;28;20137;-68
2024/01/10 08:11:53;;;;;;;14.55;6.50;;;;;;;;;;4957279;28;20505;-69
2024/01/10 08:14:18;;;;;;;14.23;6.28;;;;;;;;;;4967539;28;20039;-69
2024/01/10 08:16:44;;;;;;;27.45;8.73;;;;;;;;;;4967011;28;20030;-69
2024/01/10 08:19:11;;;;;;;19.52;5.93;;;;;;;;;;4967283;28;20490;-68
2024/01/10 08:21:36;;;;;;;21.00;6.00;;;;;;;;;;4970311;28;20508;-69
2024/01/10 08:24:02;;;;;;;29.83;7.80;;;;;;;;;;4971685;28;20106;-69
2024/01/10 08:26:27;;;;;;;19.58;6.78;;;;;;;;;;4962607;28;20390;-69
2024/01/10 08:28:53;;;;;;;15.57;6.15;;;;;;;;;;4972751;28;20026;-69
2024/01/10 08:31:18;;;;;;;12.45;5.45;;;;;;;;;;4972399;28;20018;-67
2024/01/10 08:33:43;;;;;;;13.35;5.68;;;;;;;;;;4964001;28;20026;-67
2024/01/10 08:36:12;;;;;;;17.60;4.97;;;;;;;;;;4969205;28;20528;-69
2024/01/10 08:38:37;;;;;;;15.57;5.40;;;;;;;;;;4972315;28;20045;-69
2024/01/10 08:41:03;;;;;;;19.38;6.40;;;;;;;;;;4966218;28;20023;-69
2024/01/10 08:43:28;;;;;;;22.13;7.40;;;;;;;;;;4968784;28;20041;-69
2024/01/10 08:45:53;;;;;;;14.48;6.30;;;;;;;;;;4961509;28;20026;-69
2024/01/10 08:48:19;;;;;;;29.02;8.82;;;;;;;;;;4964353;28;20014;-69
2024/01/10 08:50:44;;;;;;;45.90;12.88;;;;;;;;;;4959827;28;20386;-69
2024/01/10 08:53:10;;;;;;;58.13;15.73;;;;;;;;;;4972327;28;20031;-69
2024/01/10 08:55:36;;;;;;;44.63;15.05;;;;;;;;;;4968032;28;20405;-69
2024/01/10 08:58:02;;;;;;;27.83;11.38;;;;;;;;;;4965240;28;20027;-69
2024/01/10 09:00:27;;;;;;;23.98;6.18;;;;;;;;;;4962343;28;20034;-69
2024/01/10 09:02:53;;;;;;;19.90;6.53;;;;;;;;;;4964599;28;20022;-69
2024/01/10 09:05:18;;;;;;;17.25;6.75;;;;;;;;;;4964044;28;20027;-69
2024/01/10 09:07:43;;;;;;;24.63;8.23;;;;;;;;;;4968119;28;20033;-68
2024/01/10 09:10:09;;;;;;;19.23;7.60;;;;;;;;;;4971854;28;20023;-68
2024/01/10 09:12:34;;;;;;;18.23;7.35;;;;;;;;;;4971482;28;20160;-69
2024/01/10 09:15:00;;;;;;;19.77;7.72;;;;;;;;;;4948383;28;20053;-69
2024/01/10 09:17:26;;;;;;;20.20;7.32;;;;;;;;;;4954440;28;20099;-69
2024/01/10 09:19:51;;;;;;;19.30;7.68;;;;;;;;;;4965354;28;20019;-69
2024/01/10 09:22:16;;;;;;;18.63;7.47;;;;;;;;;;4968206;28;20440;-70
2024/01/10 09:24:41;;;;;;;22.90;8.05;;;;;;;;;;4962383;28;20106;-69
2024/01/10 09:27:07;;;;;;;21.08;7.57;;;;;;;;;;4968248;28;20028;-70
2024/01/10 09:29:35;;;;;;;20.08;7.68;;;;;;;;;;4965916;28;20473;-67
2024/01/10 09:32:00;;;;;;;21.23;7.07;;;;;;;;;;4961724;28;20030;-67
2024/01/10 09:34:25;;;;;;;22.40;7.85;;;;;;;;;;4971439;28;20489;-67
2024/01/10 09:36:52;;;;;;;14.73;6.65;;;;;;;;;;4963655;28;20100;-67
2024/01/10 09:39:17;;;;;;;21.50;7.70;;;;;;;;;;4965342;28;20118;-70
2024/01/10 09:41:46;;;;;;;20.13;8.82;;;;;;;;;;4972255;28;20351;-68
2024/01/10 09:44:11;;;;;;;22.05;8.98;;;;;;;;;;4965520;28;20030;-67
2024/01/10 09:46:38;;;;;;;26.77;9.25;;;;;;;;;;4967938;28;20492;-68
2024/01/10 09:49:03;;;;;;;21.45;8.73;;;;;;;;;;4967041;28;20325;-67
2024/01/10 09:51:29;;;;;;;19.55;7.90;;;;;;;;;;4964742;28;20084;-68
2024/01/10 09:53:55;;;;;;;27.08;8.75;;;;;;;;;;4966612;28;20034;-67
2024/01/10 09:56:20;;;;;;;24.42;9.05;;;;;;;;;;4971990;28;20095;-70
2024/01/10 09:58:48;;;;;;;22.85;8.43;;;;;;;;;;4964851;28;20034;-68
2024/01/10 10:01:13;;;;;;;22.88;9.55;;;;;;;;;;4957263;28;20069;-67
2024/01/10 10:03:40;;;;;;;22.77;8.82;;;;;;;;;;4963937;28;20123;-67
2024/01/10 10:06:07;;;;;;;27.35;9.10;;;;;;;;;;4964975;28;20025;-67
2024/01/10 10:08:32;;;;;;;31.02;8.82;;;;;;;;;;4968329;28;20038;-68
2024/01/10 10:10:58;;;;;;;13.60;4.85;;;;;;;;;;4967485;28;20026;-67
2024/01/10 10:13:27;;;;;;;19.33;6.85;;;;;;;;;;4973158;28;20023;-68
2024/01/10 10:15:59;;;;;;;9.95;4.22;;;;;;;;;;4966531;28;20019;-68
2024/01/10 10:18:24;;;;;;;16.15;6.68;;;;;;;;;;4960655;28;20101;-69
2024/01/10 10:21:05;;;;;;;13.88;4.13;;;;;;;;;;4965819;28;20149;-67
2024/01/10 10:23:30;;;;;;;19.23;7.82;;;;;;;;;;4950940;28;20015;-67
2024/01/10 10:25:56;;;;;;;22.58;8.07;;;;;;;;;;4965627;28;20038;-70
2024/01/10 10:28:21;;;;;;;16.90;7.13;;;;;;;;;;4968671;28;20478;-68
2024/01/10 10:30:46;;;;;;;11.77;4.22;;;;;;;;;;4960274;28;20157;-68
2024/01/10 10:33:11;;;;;;;20.13;7.15;;;;;;;;;;4964623;28;20111;-68
2024/01/10 10:35:37;;;;;;;18.20;7.15;;;;;;;;;;4965505;28;20022;-70
2024/01/10 10:38:02;;;;;;;14.07;4.13;;;;;;;;;;4965068;28;20118;-68
2024/01/10 10:40:27;;;;;;;19.45;9.38;;;;;;;;;;4961408;28;20497;-67
2024/01/10 10:42:54;;;;;;;23.17;9.48;;;;;;;;;;4959502;28;20053;-68
2024/01/10 10:45:25;;;;;;;33.40;11.90;;;;;;;;;;4966051;28;20038;-67
2024/01/10 10:47:53;;;;;;;30.17;10.40;;;;;;;;;;4963060;28;20026;-68
2024/01/10 10:50:22;;;;;;;36.15;9.57;;;;;;;;;;4966555;28;20654;-68
2024/01/10 10:52:48;;;;;;;23.30;8.32;;;;;;;;;;4964990;28;20444;-68
2024/01/10 10:55:15;;;;;;;27.15;10.52;;;;;;;;;;4962256;28;20034;-68
2024/01/10 10:57:42;;;;;;;25.83;10.02;;;;;;;;;;4946566;28;20031;-67
2024/01/10 11:00:08;;;;;;;24.00;9.68;;;;;;;;;;4963326;28;20026;-67
2024/01/10 11:02:35;;;;;;;29.10;11.00;;;;;;;;;;4964215;28;20436;-68
2024/01/10 11:05:00;;;;;;;29.67;10.45;;;;;;;;;;4961989;28;20027;-68
2024/01/10 11:07:26;;;;;;;29.02;10.40;;;;;;;;;;4964801;28;20483;-68
2024/01/10 11:09:52;;;;;;;23.23;9.07;;;;;;;;;;4963950;28;20030;-67
2024/01/10 11:12:36;;;;;;;26.75;9.20;;;;;;;;;;4969474;28;20026;-67
2024/01/10 11:15:09;;;;;;;27.90;10.50;;;;;;;;;;4963087;28;20056;-68
2024/01/10 11:17:53;;;;;;;25.48;10.95;;;;;;;;;;4963538;28;20023;-68
2024/01/10 11:20:30;;;;;;;27.83;11.10;;;;;;;;;;4967014;28;20027;-68
2024/01/10 11:23:14;;;;;;;43.13;11.85;;;;;;;;;;4948050;28;20023;-68
2024/01/10 11:25:40;;;;;;;27.60;10.45;;;;;;;;;;4960094;28;20416;-67
2024/01/10 11:28:05;;;;;;;29.17;10.68;;;;;;;;;;4957106;28;20031;-70
2024/01/10 11:30:37;;;;;;;24.10;9.65;;;;;;;;;;4966766;28;20077;-67
2024/01/10 11:33:23;;;;;;;25.60;9.35;;;;;;;;;;4967532;28;20030;-70
2024/01/10 11:36:09;;;;;;;25.42;9.82;;;;;;;;;;4962019;28;20181;-67
2024/01/10 11:38:38;;;;;;;33.92;13.23;;;;;;;;;;4961960;28;20027;-68
2024/01/10 11:41:04;;;;;;;27.08;11.13;;;;;;;;;;4969172;28;20184;-68
2024/01/10 11:43:29;;;;;;;24.73;10.05;;;;;;;;;;4961758;28;20156;-68
2024/01/10 11:45:55;;;;;;;26.73;10.10;;;;;;;;;;4971711;28;20031;-68
2024/01/10 11:48:30;;;;;;;27.73;10.68;;;;;;;;;;4963006;28;20505;-68
2024/01/10 11:50:57;;;;;;;26.92;10.45;;;;;;;;;;4967784;28;20034;-68
2024/01/10 11:53:39;;;;;;;28.23;10.57;;;;;;;;;;4966917;28;20054;-68
2024/01/10 11:56:20;;;;;;;27.90;10.15;;;;;;;;;;4964541;28;20047;-68
2024/01/10 11:59:08;;;;;;;30.58;10.57;;;;;;;;;;4967638;28;20501;-68
2024/01/10 12:01:33;;;;;;;30.33;11.43;;;;;;;;;;4969257;28;20023;-68
2024/01/10 12:03:59;;;;;;;24.48;9.80;;;;;;;;;;4968112;28;20033;-68
2024/01/10 12:06:25;;;;;;;26.70;10.50;;;;;;;;;;4968531;28;20098;-68
2024/01/10 12:08:50;;;;;;;30.25;11.45;;;;;;;;;;4967851;28;20521;-69
2024/01/10 12:11:16;;;;;;;32.00;11.25;;;;;;;;;;4968150;28;20023;-69
2024/01/10 12:13:41;;;;;;;29.35;11.85;;;;;;;;;;4966834;28;20406;-68
2024/01/10 12:16:06;;;;;;;28.45;11.10;;;;;;;;;;4969975;28;20019;-68
2024/01/10 12:18:31;;;;;;;27.73;10.93;;;;;;;;;;4965688;28;20031;-68
2024/01/10 12:20:57;;;;;;;36.10;13.00;;;;;;;;;;4965850;28;20098;-69
2024/01/10 12:23:22;;;;;;;24.45;10.50;;;;;;;;;;4950010;28;20018;-69
2024/01/10 12:25:50;;;;;;;29.63;11.57;;;;;;;;;;4973128;28;20535;-68
2024/01/10 12:28:16;;;;;;;29.63;11.25;;;;;;;;;;4974782;28;20053;-69
2024/01/10 12:30:41;;;;;;;33.75;12.15;;;;;;;;;;4968319;28;20043;-69
2024/01/10 12:33:08;;;;;;;34.57;10.97;;;;;;;;;;4969415;28;20226;-69
2024/01/10 12:35:34;;;;;;;34.20;11.30;;;;;;;;;;4967284;28;20297;-68
2024/01/10 12:37:59;;;;;;;39.75;10.90;;;;;;;;;;4969534;28;20023;-68
2024/01/10 12:40:24;;;;;;;36.15;11.80;;;;;;;;;;4969817;28;20035;-68
2024/01/10 12:43:01;;;;;;;30.23;11.98;;;;;;;;;;4967272;28;20286;-68
2024/01/10 12:45:26;;;;;;;29.42;11.98;;;;;;;;;;4963050;28;20062;-68
2024/01/10 12:47:53;;;;;;;24.40;10.30;;;;;;;;;;4956110;28;20449;-68
2024/01/10 12:50:18;;;;;;;33.08;13.25;;;;;;;;;;4966785;28;20027;-68
2024/01/10 12:52:44;;;;;;;37.88;13.10;;;;;;;;;;4966261;28;20444;-68
2024/01/10 12:55:09;;;;;;;27.80;11.18;;;;;;;;;;4967400;28;20023;-68
2024/01/10 12:57:35;;;;;;;29.88;11.18;;;;;;;;;;4963976;28;20023;-68
2024/01/10 13:00:00;;;;;;;29.67;11.35;;;;;;;;;;4947229;28;20027;-68
2024/01/10 13:02:25;;;;;;;27.63;9.20;;;;;;;;;;4965606;28;20019;-68
2024/01/10 13:04:51;;;;;;;35.75;12.77;;;;;;;;;;4965657;28;20023;-68
2024/01/10 13:07:17;;;;;;;28.40;11.48;;;;;;;;;;4967451;28;20026;-68
2024/01/10 13:09:42;;;;;;;35.45;12.48;;;;;;;;;;4966378;28;20398;-68
2024/01/10 13:12:07;;;;;;;34.35;11.48;;;;;;;;;;4963333;28;20023;-68
2024/01/10 13:14:35;;;;;;;32.60;11.68;;;;;;;;;;4964835;28;20023;-68
2024/01/10 13:17:01;;;;;;;35.67;13.18;;;;;;;;;;4960600;28;20114;-69
2024/01/10 13:19:26;;;;;;;33.90;12.83;;;;;;;;;;4965636;28;20114;-69
2024/01/10 13:21:55;;;;;;;30.73;13.00;;;;;;;;;;4952498;28;20262;-68
2024/01/10 13:24:20;;;;;;;34.72;12.50;;;;;;;;;;4967240;28;20053;-66
2024/01/10 13:26:45;;;;;;;39.38;13.27;;;;;;;;;;4964515;28;20359;-69
2024/01/10 13:29:13;;;;;;;35.90;13.10;;;;;;;;;;4964410;28;20026;-69
2024/01/10 13:31:39;;;;;;;35.22;12.70;;;;;;;;;;4967497;28;20018;-68
2024/01/10 13:34:04;;;;;;;35.30;13.85;;;;;;;;;;4965222;28;20023;-69
2024/01/10 13:36:30;;;;;;;34.47;12.80;;;;;;;;;;4964435;28;20073;-68
2024/01/10 13:38:55;;;;;;;31.08;11.93;;;;;;;;;;4961337;28;20031;-68
2024/01/10 13:41:20;;;;;;;32.97;12.90;;;;;;;;;;4966405;28;20507;-69
2024/01/10 13:43:46;;;;;;;36.33;13.27;;;;;;;;;;4962359;28;20038;-68
2024/01/10 13:46:11;;;;;;;38.47;12.73;;;;;;;;;;4949775;28;20613;-69
2024/01/10 13:48:36;;;;;;;30.98;12.68;;;;;;;;;;4962052;28;20261;-68
2024/01/10 13:51:01;;;;;;;34.50;11.65;;;;;;;;;;4963608;28;20027;-68
2024/01/10 13:53:26;;;;;;;31.02;12.38;;;;;;;;;;4960391;28;20377;-68
2024/01/10 13:55:52;;;;;;;31.67;12.70;;;;;;;;;;4961315;28;20096;-68
2024/01/10 13:58:18;;;;;;;40.58;12.52;;;;;;;;;;4960338;28;20474;-69
2024/01/10 14:00:43;;;;;;;31.08;12.90;;;;;;;;;;4963930;28;20463;-68
2024/01/10 14:03:09;;;;;;;31.98;12.38;;;;;;;;;;4963936;28;20277;-68
2024/01/10 14:05:34;;;;;;;30.65;11.68;;;;;;;;;;4968395;28;20528;-68
2024/01/10 14:07:59;;;;;;;33.05;11.82;;;;;;;;;;4960461;28;20072;-68
2024/01/10 14:10:25;;;;;;;34.90;11.73;;;;;;;;;;4967410;28;20033;-68
2024/01/10 14:12:50;;;;;;;26.65;11.52;;;;;;;;;;4963565;28;20285;-68
2024/01/10 14:15:15;;;;;;;31.90;11.73;;;;;;;;;;4961843;28;20038;-68
2024/01/10 14:17:41;;;;;;;27.00;10.98;;;;;;;;;;4965742;28;20015;-68
2024/01/10 14:20:08;;;;;;;35.03;12.27;;;;;;;;;;4965387;28;20027;-68